Time;durP1;ratioP1;P1;durP2;ratioP2;P2;SDS_P1;SDS_P2;PMS_P1;PMS_P2;Temp;Humidity;BMP_temperature;BMP_pressure;BME280_temperature;BME280_humidity;BME280_pressure;Samples;Min_cycle;Max_cycle;Signal;HPM_P1;HPM_P2
2023/07/19 00:02:01;;;;;;;0.70;0.60;;;;;;;;;;5026273;28;20518;-76
2023/07/19 00:04:29;;;;;;;1.10;1.00;;;;;;;;;;5012515;28;20433;-77
2023/07/19 00:06:57;;;;;;;0.70;0.60;;;;;;;;;;5021257;28;20536;-76
2023/07/19 00:13:04;;;;;;;0.70;0.60;;;;;;;;;;5024665;28;20479;-76
2023/07/19 00:15:31;;;;;;;0.90;0.87;;;;;;;;;;5024393;28;21006;-76
2023/07/19 00:17:57;;;;;;;0.70;0.70;;;;;;;;;;5028030;28;20454;-78
2023/07/19 00:20:25;;;;;;;0.70;0.60;;;;;;;;;;5018991;28;20778;-77
2023/07/19 00:22:52;;;;;;;0.93;0.93;;;;;;;;;;5027175;28;20462;-78
2023/07/19 00:25:19;;;;;;;0.70;0.60;;;;;;;;;;5023834;28;20440;-75
2023/07/19 00:27:48;;;;;;;0.80;0.70;;;;;;;;;;5010424;28;20427;-76
2023/07/19 00:30:15;;;;;;;0.70;0.60;;;;;;;;;;5029767;28;20506;-76
2023/07/19 00:32:42;;;;;;;0.80;0.70;;;;;;;;;;5009348;28;20444;-77
2023/07/19 00:35:09;;;;;;;0.70;0.60;;;;;;;;;;5014451;28;20483;-76
2023/07/19 00:37:37;;;;;;;0.70;0.60;;;;;;;;;;5012608;28;20462;-77
2023/07/19 00:40:04;;;;;;;1.43;1.33;;;;;;;;;;5016059;28;20474;-78
2023/07/19 00:42:31;;;;;;;0.70;0.70;;;;;;;;;;5005863;28;20451;-76
2023/07/19 00:44:57;;;;;;;0.70;0.70;;;;;;;;;;5017001;28;20459;-77
2023/07/19 00:47:24;;;;;;;0.70;0.70;;;;;;;;;;5013798;28;20443;-77
2023/07/19 00:49:54;;;;;;;0.70;0.63;;;;;;;;;;5015633;28;20503;-76
2023/07/19 00:52:21;;;;;;;0.80;0.80;;;;;;;;;;5024910;28;20551;-76
2023/07/19 00:54:49;;;;;;;0.80;0.70;;;;;;;;;;5029356;28;20468;-77
2023/07/19 00:57:15;;;;;;;1.63;1.53;;;;;;;;;;5022818;28;20528;-76
2023/07/19 00:59:43;;;;;;;0.70;0.70;;;;;;;;;;5014554;28;20517;-77
2023/07/19 01:02:10;;;;;;;1.63;1.53;;;;;;;;;;5013197;28;20472;-76
2023/07/19 01:04:40;;;;;;;5.13;2.43;;;;;;;;;;5014064;28;20531;-76
2023/07/19 01:07:07;;;;;;;0.70;0.60;;;;;;;;;;5026852;28;20467;-76
2023/07/19 01:09:34;;;;;;;0.70;0.70;;;;;;;;;;5025801;28;20465;-76
2023/07/19 01:12:02;;;;;;;0.70;0.60;;;;;;;;;;5023655;28;20481;-76
2023/07/19 01:14:29;;;;;;;0.80;0.70;;;;;;;;;;5012040;28;20527;-75
2023/07/19 01:16:56;;;;;;;0.70;0.60;;;;;;;;;;5013432;28;20460;-77
2023/07/19 01:19:35;;;;;;;0.70;0.67;;;;;;;;;;5012758;28;20453;-76
2023/07/19 01:22:02;;;;;;;0.70;0.70;;;;;;;;;;4996977;28;20496;-76
2023/07/19 01:24:31;;;;;;;0.70;0.70;;;;;;;;;;5009480;28;20432;-79
2023/07/19 01:27:00;;;;;;;0.70;0.67;;;;;;;;;;5000972;28;20442;-75
2023/07/19 01:29:46;;;;;;;1.20;1.10;;;;;;;;;;5024468;28;20448;-77
2023/07/19 01:32:13;;;;;;;0.70;0.70;;;;;;;;;;5014272;28;20535;-77
2023/07/19 01:34:39;;;;;;;0.97;0.90;;;;;;;;;;5014554;28;20955;-77
2023/07/19 01:37:06;;;;;;;0.70;0.60;;;;;;;;;;5015646;28;20563;-76
2023/07/19 01:39:34;;;;;;;2.00;1.87;;;;;;;;;;5027508;28;20457;-76
2023/07/19 01:42:01;;;;;;;0.70;0.70;;;;;;;;;;5012593;28;20824;-76
2023/07/19 01:44:27;;;;;;;0.73;0.70;;;;;;;;;;5007169;28;20469;-77
2023/07/19 01:46:55;;;;;;;0.70;0.60;;;;;;;;;;5010963;28;20454;-76
2023/07/19 01:49:22;;;;;;;0.70;0.60;;;;;;;;;;5014573;28;20468;-77
2023/07/19 01:51:49;;;;;;;0.70;0.70;;;;;;;;;;5023775;28;20564;-76
2023/07/19 01:54:15;;;;;;;0.70;0.60;;;;;;;;;;5016350;28;20485;-77
2023/07/19 01:56:43;;;;;;;0.83;0.83;;;;;;;;;;5022159;28;20861;-76
2023/07/19 01:59:10;;;;;;;0.70;0.70;;;;;;;;;;5004102;28;20440;-75
2023/07/19 02:01:37;;;;;;;0.70;0.70;;;;;;;;;;4998957;28;20443;-77
2023/07/19 02:04:03;;;;;;;0.80;0.73;;;;;;;;;;5023912;28;20445;-78
2023/07/19 02:06:30;;;;;;;0.70;0.63;;;;;;;;;;5017232;28;20527;-77
2023/07/19 02:08:57;;;;;;;0.70;0.60;;;;;;;;;;5015364;28;20459;-78
2023/07/19 02:11:26;;;;;;;0.70;0.70;;;;;;;;;;5001670;28;20490;-76
2023/07/19 02:13:54;;;;;;;0.70;0.70;;;;;;;;;;5028819;28;20444;-77
2023/07/19 02:16:20;;;;;;;0.90;0.70;;;;;;;;;;5014087;28;20448;-78
2023/07/19 02:18:47;;;;;;;1.20;1.10;;;;;;;;;;5010139;28;20804;-77
2023/07/19 02:21:14;;;;;;;0.70;0.63;;;;;;;;;;5030659;28;20468;-78
2023/07/19 02:23:40;;;;;;;1.20;0.80;;;;;;;;;;5015314;28;20501;-78
2023/07/19 02:26:07;;;;;;;0.80;0.70;;;;;;;;;;5023308;28;20442;-78
2023/07/19 02:28:33;;;;;;;0.70;0.60;;;;;;;;;;5015243;28;20519;-77
2023/07/19 02:31:03;;;;;;;0.70;0.60;;;;;;;;;;5014063;28;20468;-76
2023/07/19 02:33:30;;;;;;;0.70;0.60;;;;;;;;;;5013043;28;20434;-77
2023/07/19 02:35:57;;;;;;;0.70;0.60;;;;;;;;;;5006439;28;20471;-76
2023/07/19 02:38:24;;;;;;;0.70;0.60;;;;;;;;;;5011695;28;20536;-76
2023/07/19 02:40:50;;;;;;;0.90;0.90;;;;;;;;;;5010053;28;20843;-77
2023/07/19 02:43:17;;;;;;;0.80;0.80;;;;;;;;;;5022683;28;20529;-76
2023/07/19 02:45:43;;;;;;;0.70;0.70;;;;;;;;;;5024206;28;20471;-77
2023/07/19 02:48:11;;;;;;;0.80;0.80;;;;;;;;;;5011598;28;20440;-77
2023/07/19 02:50:43;;;;;;;0.80;0.70;;;;;;;;;;5028989;28;20476;-77
2023/07/19 02:53:10;;;;;;;0.70;0.70;;;;;;;;;;5022067;28;20468;-77
2023/07/19 02:55:36;;;;;;;0.70;0.70;;;;;;;;;;5022286;28;21013;-77
2023/07/19 02:58:03;;;;;;;0.80;0.80;;;;;;;;;;5024827;28;20531;-77
2023/07/19 03:00:29;;;;;;;0.70;0.60;;;;;;;;;;5020545;28;20827;-76
2023/07/19 03:02:56;;;;;;;0.70;0.70;;;;;;;;;;5005668;28;20438;-76
2023/07/19 03:05:24;;;;;;;0.70;0.60;;;;;;;;;;4995441;28;20530;-77
2023/07/19 03:07:52;;;;;;;0.80;0.77;;;;;;;;;;5025350;28;20869;-76
2023/07/19 03:10:18;;;;;;;0.97;0.93;;;;;;;;;;5017231;28;20534;-77
2023/07/19 03:12:45;;;;;;;0.70;0.60;;;;;;;;;;5010795;28;20567;-77
2023/07/19 03:15:12;;;;;;;0.70;0.60;;;;;;;;;;5019626;28;20463;-77
2023/07/19 03:17:39;;;;;;;0.70;0.60;;;;;;;;;;5003179;28;20547;-77
2023/07/19 03:20:06;;;;;;;0.70;0.70;;;;;;;;;;5013051;28;20444;-77
2023/07/19 03:22:36;;;;;;;2.00;1.57;;;;;;;;;;5009343;28;20899;-77
2023/07/19 03:25:05;;;;;;;0.70;0.63;;;;;;;;;;5004633;28;20467;-77
2023/07/19 03:27:32;;;;;;;0.70;0.70;;;;;;;;;;5012771;28;21032;-77
2023/07/19 03:29:59;;;;;;;0.70;0.63;;;;;;;;;;5020753;28;20529;-77
2023/07/19 03:32:29;;;;;;;0.93;0.93;;;;;;;;;;4998557;28;20505;-77
2023/07/19 03:34:56;;;;;;;0.70;0.60;;;;;;;;;;5010562;28;20468;-76
2023/07/19 03:37:23;;;;;;;0.70;0.70;;;;;;;;;;5012364;28;20886;-76
2023/07/19 03:39:50;;;;;;;0.70;0.67;;;;;;;;;;5006744;28;20537;-76
2023/07/19 03:42:17;;;;;;;0.70;0.70;;;;;;;;;;5007789;28;20958;-76
2023/07/19 03:44:44;;;;;;;0.70;0.60;;;;;;;;;;5019034;28;20926;-76
2023/07/19 03:47:10;;;;;;;0.73;0.70;;;;;;;;;;5004599;28;20440;-76
2023/07/19 03:49:37;;;;;;;0.70;0.67;;;;;;;;;;5009516;28;20439;-76
2023/07/19 03:52:05;;;;;;;0.70;0.63;;;;;;;;;;5011728;28;21030;-75
2023/07/19 03:54:32;;;;;;;0.80;0.73;;;;;;;;;;5025179;28;20452;-77
2023/07/19 03:57:00;;;;;;;0.80;0.70;;;;;;;;;;5022966;28;20463;-76
2023/07/19 03:59:29;;;;;;;0.70;0.60;;;;;;;;;;5016006;28;20880;-77
2023/07/19 04:01:55;;;;;;;1.23;0.80;;;;;;;;;;5025381;28;20899;-75
2023/07/19 04:04:22;;;;;;;0.80;0.80;;;;;;;;;;5027994;28;20444;-76
2023/07/19 04:06:49;;;;;;;0.70;0.70;;;;;;;;;;5014951;28;20442;-76
2023/07/19 04:09:15;;;;;;;0.70;0.70;;;;;;;;;;5024911;28;20460;-78
2023/07/19 04:11:42;;;;;;;0.97;0.97;;;;;;;;;;5016923;28;21003;-77
2023/07/19 04:14:10;;;;;;;0.80;0.70;;;;;;;;;;5026931;28;20456;-74
2023/07/19 04:16:37;;;;;;;0.70;0.70;;;;;;;;;;5015764;28;20440;-76
2023/07/19 04:19:04;;;;;;;0.70;0.70;;;;;;;;;;5011335;28;20449;-76
2023/07/19 04:21:31;;;;;;;0.70;0.60;;;;;;;;;;5013738;28;20463;-76
2023/07/19 04:23:57;;;;;;;0.70;0.60;;;;;;;;;;5011193;28;20481;-74
2023/07/19 04:26:26;;;;;;;2.90;1.20;;;;;;;;;;5014155;28;21010;-77
2023/07/19 04:28:52;;;;;;;0.80;0.80;;;;;;;;;;4997174;28;20944;-76
2023/07/19 04:31:20;;;;;;;0.70;0.60;;;;;;;;;;5019866;28;20461;-76
2023/07/19 04:33:47;;;;;;;0.73;0.70;;;;;;;;;;5024241;28;21034;-75
2023/07/19 04:36:15;;;;;;;0.70;0.70;;;;;;;;;;5026246;28;20516;-75
2023/07/19 04:38:44;;;;;;;0.70;0.70;;;;;;;;;;5015118;28;20458;-76
2023/07/19 04:41:11;;;;;;;0.70;0.70;;;;;;;;;;5014545;28;20447;-76
2023/07/19 04:43:38;;;;;;;0.80;0.80;;;;;;;;;;5011813;28;20801;-77
2023/07/19 04:46:06;;;;;;;0.70;0.67;;;;;;;;;;5015807;28;20467;-77
2023/07/19 04:48:34;;;;;;;0.70;0.70;;;;;;;;;;4997393;28;20446;-77
2023/07/19 04:51:01;;;;;;;0.70;0.60;;;;;;;;;;5011780;28;21044;-77
2023/07/19 04:53:28;;;;;;;0.70;0.70;;;;;;;;;;5012165;28;21019;-77
2023/07/19 04:55:56;;;;;;;1.20;1.10;;;;;;;;;;5020993;28;20448;-77
2023/07/19 04:58:27;;;;;;;0.70;0.70;;;;;;;;;;5013309;28;20801;-76
2023/07/19 05:00:54;;;;;;;1.17;0.90;;;;;;;;;;5011166;28;20801;-77
2023/07/19 05:03:22;;;;;;;1.70;1.00;;;;;;;;;;5009199;28;20441;-78
2023/07/19 05:05:50;;;;;;;0.70;0.60;;;;;;;;;;4994650;28;20449;-77
2023/07/19 05:08:18;;;;;;;1.20;1.10;;;;;;;;;;5015602;28;20520;-77
2023/07/19 05:10:45;;;;;;;0.70;0.63;;;;;;;;;;5005209;28;20502;-77
2023/07/19 05:13:11;;;;;;;0.70;0.63;;;;;;;;;;4993647;28;20464;-76
2023/07/19 05:15:38;;;;;;;1.30;1.20;;;;;;;;;;5009259;28;20539;-78
2023/07/19 05:18:09;;;;;;;0.70;0.60;;;;;;;;;;5018027;28;20447;-77
2023/07/19 05:20:36;;;;;;;0.73;0.67;;;;;;;;;;5013347;28;20456;-77
2023/07/19 05:23:04;;;;;;;0.90;0.80;;;;;;;;;;5009394;28;20454;-76
2023/07/19 05:25:30;;;;;;;0.70;0.70;;;;;;;;;;5028998;28;20439;-77
2023/07/19 05:27:57;;;;;;;0.80;0.73;;;;;;;;;;5028694;28;20437;-77
2023/07/19 05:30:24;;;;;;;0.80;0.80;;;;;;;;;;5027711;28;20872;-77
2023/07/19 05:32:50;;;;;;;2.07;1.97;;;;;;;;;;5026930;28;20490;-77
2023/07/19 05:35:17;;;;;;;0.80;0.70;;;;;;;;;;4992625;28;20534;-77
2023/07/19 05:37:44;;;;;;;0.80;0.70;;;;;;;;;;5024721;28;20456;-77
2023/07/19 05:40:13;;;;;;;1.10;0.90;;;;;;;;;;5030613;28;20438;-76
2023/07/19 05:42:40;;;;;;;0.80;0.73;;;;;;;;;;5028211;28;20439;-77
2023/07/19 05:45:07;;;;;;;1.10;1.00;;;;;;;;;;5026384;28;20497;-78
2023/07/19 05:47:33;;;;;;;0.70;0.60;;;;;;;;;;5015233;28;20473;-76
2023/07/19 05:50:00;;;;;;;0.70;0.70;;;;;;;;;;5016632;28;20445;-77
2023/07/19 05:52:28;;;;;;;0.77;0.70;;;;;;;;;;5032628;28;20830;-77
2023/07/19 05:54:55;;;;;;;0.80;0.70;;;;;;;;;;5004147;28;20455;-78
2023/07/19 05:57:23;;;;;;;0.90;0.73;;;;;;;;;;5029167;28;20435;-77
2023/07/19 05:59:50;;;;;;;0.70;0.70;;;;;;;;;;5028878;28;20537;-77
2023/07/19 06:02:16;;;;;;;0.70;0.60;;;;;;;;;;5017477;28;20453;-78
2023/07/19 06:04:45;;;;;;;0.70;0.70;;;;;;;;;;5020131;28;20449;-78
2023/07/19 06:07:15;;;;;;;1.00;0.90;;;;;;;;;;5011097;28;20468;-77
2023/07/19 06:09:42;;;;;;;0.80;0.80;;;;;;;;;;5028914;28;20961;-77
2023/07/19 06:12:09;;;;;;;1.00;0.90;;;;;;;;;;5018408;28;20543;-78
2023/07/19 06:14:37;;;;;;;1.27;1.17;;;;;;;;;;5022012;28;20459;-78
2023/07/19 06:17:03;;;;;;;0.80;0.80;;;;;;;;;;5022270;28;20555;-77
2023/07/19 06:19:30;;;;;;;0.80;0.70;;;;;;;;;;5026499;28;20851;-78
2023/07/19 06:21:56;;;;;;;0.80;0.80;;;;;;;;;;5027231;28;20469;-78
2023/07/19 06:24:23;;;;;;;1.23;1.13;;;;;;;;;;5013372;28;20442;-78
2023/07/19 06:26:50;;;;;;;0.80;0.80;;;;;;;;;;5027968;28;20905;-77
2023/07/19 06:29:17;;;;;;;0.80;0.80;;;;;;;;;;5013270;28;20452;-78
2023/07/19 06:31:44;;;;;;;0.80;0.70;;;;;;;;;;5024228;28;20552;-77
2023/07/19 06:34:11;;;;;;;0.80;0.70;;;;;;;;;;5029538;28;20809;-76
2023/07/19 06:36:38;;;;;;;1.33;1.10;;;;;;;;;;5008928;28;20437;-77
2023/07/19 06:39:05;;;;;;;1.07;1.00;;;;;;;;;;5010637;28;20489;-79
2023/07/19 06:41:31;;;;;;;0.97;0.90;;;;;;;;;;5025700;28;20530;-77
2023/07/19 06:43:58;;;;;;;0.70;0.60;;;;;;;;;;5007015;28;20472;-78
2023/07/19 06:46:25;;;;;;;0.80;0.70;;;;;;;;;;5008165;28;20446;-77
2023/07/19 06:48:53;;;;;;;1.10;1.03;;;;;;;;;;5013663;28;20472;-78
2023/07/19 06:51:20;;;;;;;2.70;2.57;;;;;;;;;;5011585;28;20441;-76
2023/07/19 06:53:47;;;;;;;2.67;1.80;;;;;;;;;;5024719;28;20481;-78
2023/07/19 06:56:26;;;;;;;0.80;0.80;;;;;;;;;;5018509;28;20496;-79
2023/07/19 06:58:53;;;;;;;0.70;0.70;;;;;;;;;;5012390;28;20917;-79
2023/07/19 07:01:20;;;;;;;0.80;0.70;;;;;;;;;;5026697;28;20519;-76
2023/07/19 07:03:48;;;;;;;0.80;0.70;;;;;;;;;;5011784;28;20775;-80
2023/07/19 07:06:16;;;;;;;1.13;0.90;;;;;;;;;;5012029;28;20452;-78
2023/07/19 07:08:44;;;;;;;0.70;0.70;;;;;;;;;;5026415;28;21188;-77
2023/07/19 07:11:11;;;;;;;0.80;0.70;;;;;;;;;;5014178;28;20529;-78
2023/07/19 07:13:38;;;;;;;0.70;0.60;;;;;;;;;;5013548;28;20503;-76
2023/07/19 07:16:04;;;;;;;0.80;0.80;;;;;;;;;;5023475;28;20430;-78
2023/07/19 07:18:31;;;;;;;0.90;0.90;;;;;;;;;;5026607;28;21087;-76
2023/07/19 07:20:58;;;;;;;0.80;0.70;;;;;;;;;;5021757;28;20445;-79
2023/07/19 07:23:26;;;;;;;0.80;0.70;;;;;;;;;;5021834;28;20468;-80
2023/07/19 07:25:55;;;;;;;0.70;0.70;;;;;;;;;;5025574;28;20465;-79
2023/07/19 07:28:23;;;;;;;0.80;0.70;;;;;;;;;;5028169;28;20600;-80
2023/07/19 07:30:49;;;;;;;0.80;0.70;;;;;;;;;;5010734;28;20524;-78
2023/07/19 07:33:16;;;;;;;1.07;1.00;;;;;;;;;;5012519;28;20536;-79
2023/07/19 07:35:43;;;;;;;2.50;1.10;;;;;;;;;;5012859;28;20885;-80
2023/07/19 07:38:10;;;;;;;0.80;0.70;;;;;;;;;;5015622;28;20469;-79
2023/07/19 07:40:38;;;;;;;1.10;1.00;;;;;;;;;;5013018;28;20507;-79
2023/07/19 07:43:05;;;;;;;2.80;1.43;;;;;;;;;;5024701;28;20993;-79
2023/07/19 07:45:31;;;;;;;0.80;0.80;;;;;;;;;;5016387;28;20487;-79
2023/07/19 07:47:58;;;;;;;0.80;0.70;;;;;;;;;;5016663;28;20478;-80
2023/07/19 07:50:25;;;;;;;0.83;0.83;;;;;;;;;;5029444;28;20429;-80
2023/07/19 07:52:52;;;;;;;0.80;0.70;;;;;;;;;;5021806;28;20476;-81
2023/07/19 07:55:33;;;;;;;0.80;0.80;;;;;;;;;;5017171;28;20925;-80
2023/07/19 07:58:00;;;;;;;0.80;0.70;;;;;;;;;;5016748;28;20449;-78
2023/07/19 08:00:27;;;;;;;0.77;0.70;;;;;;;;;;5015816;28;20428;-81
2023/07/19 08:02:57;;;;;;;0.93;0.87;;;;;;;;;;5015130;28;20886;-80
2023/07/19 08:05:24;;;;;;;0.83;0.83;;;;;;;;;;5006585;28;20405;-81
2023/07/19 08:07:50;;;;;;;1.00;0.90;;;;;;;;;;5011716;28;20436;-81
2023/07/19 08:10:17;;;;;;;0.80;0.80;;;;;;;;;;5025343;28;20466;-79
2023/07/19 08:12:43;;;;;;;0.80;0.70;;;;;;;;;;5027976;28;20447;-80
2023/07/19 08:15:11;;;;;;;0.80;0.80;;;;;;;;;;5024289;28;20424;-81
2023/07/19 08:17:39;;;;;;;1.10;1.00;;;;;;;;;;5027798;28;20411;-80
2023/07/19 08:20:09;;;;;;;0.80;0.70;;;;;;;;;;5026104;28;20448;-81
2023/07/19 08:22:37;;;;;;;1.37;1.27;;;;;;;;;;5003004;28;20447;-80
2023/07/19 08:25:06;;;;;;;0.70;0.70;;;;;;;;;;5008430;28;20441;-81
2023/07/19 08:27:51;;;;;;;0.77;0.70;;;;;;;;;;5012311;28;20407;-80
2023/07/19 08:30:20;;;;;;;0.70;0.70;;;;;;;;;;5007587;28;20786;-79
2023/07/19 08:32:49;;;;;;;1.10;1.00;;;;;;;;;;4991650;28;20470;-78
2023/07/19 08:35:16;;;;;;;1.60;1.50;;;;;;;;;;5025916;28;20433;-79
2023/07/19 08:37:43;;;;;;;0.80;0.70;;;;;;;;;;5005752;28;20520;-79
2023/07/19 08:40:10;;;;;;;0.70;0.60;;;;;;;;;;5013463;28;20441;-78
2023/07/19 08:42:37;;;;;;;0.70;0.60;;;;;;;;;;5010946;28;20488;-80
2023/07/19 08:45:05;;;;;;;0.80;0.80;;;;;;;;;;5023571;28;20459;-80
2023/07/19 08:47:33;;;;;;;0.80;0.70;;;;;;;;;;5013394;28;20441;-81
2023/07/19 08:50:00;;;;;;;0.80;0.70;;;;;;;;;;5026216;28;20407;-79
2023/07/19 08:52:28;;;;;;;1.63;0.90;;;;;;;;;;5022947;28;20558;-77
2023/07/19 08:54:55;;;;;;;0.80;0.70;;;;;;;;;;5012754;28;20414;-77
2023/07/19 08:57:21;;;;;;;0.70;0.60;;;;;;;;;;5009757;28;20447;-79
2023/07/19 08:59:48;;;;;;;0.70;0.60;;;;;;;;;;5013945;28;20445;-78
2023/07/19 09:02:14;;;;;;;1.37;1.27;;;;;;;;;;5025101;28;20516;-78
2023/07/19 09:05:03;;;;;;;0.87;0.83;;;;;;;;;;5009326;28;20514;-79
2023/07/19 09:07:30;;;;;;;0.80;0.70;;;;;;;;;;5010213;28;20462;-79
2023/07/19 09:09:56;;;;;;;0.80;0.73;;;;;;;;;;5025164;28;20438;-77
2023/07/19 09:12:23;;;;;;;0.77;0.70;;;;;;;;;;5023971;28;20468;-76
2023/07/19 09:14:49;;;;;;;0.80;0.70;;;;;;;;;;5026648;28;20455;-77
2023/07/19 09:17:16;;;;;;;0.80;0.73;;;;;;;;;;5014585;28;20474;-77
2023/07/19 09:19:44;;;;;;;0.80;0.73;;;;;;;;;;5025893;28;20444;-77
2023/07/19 09:22:14;;;;;;;0.80;0.70;;;;;;;;;;5013717;28;20840;-79
2023/07/19 09:24:52;;;;;;;0.83;0.83;;;;;;;;;;5026032;28;20416;-78
2023/07/19 09:27:22;;;;;;;0.70;0.70;;;;;;;;;;5012763;28;20468;-80
2023/07/19 09:29:50;;;;;;;3.33;1.90;;;;;;;;;;5028589;28;20432;-79
2023/07/19 09:32:16;;;;;;;0.80;0.77;;;;;;;;;;5014259;28;20438;-79
2023/07/19 09:34:44;;;;;;;0.80;0.70;;;;;;;;;;5015826;28;20468;-79
2023/07/19 09:37:11;;;;;;;0.80;0.70;;;;;;;;;;4997014;28;20533;-79
2023/07/19 09:39:38;;;;;;;0.93;0.90;;;;;;;;;;5027068;28;20448;-79
2023/07/19 09:42:05;;;;;;;4.40;1.10;;;;;;;;;;5013220;28;20453;-80
2023/07/19 09:44:33;;;;;;;0.80;0.80;;;;;;;;;;5010616;28;20461;-79
2023/07/19 09:47:00;;;;;;;0.70;0.67;;;;;;;;;;5024056;28;20922;-80
2023/07/19 09:49:40;;;;;;;0.80;0.70;;;;;;;;;;5026156;28;20426;-79
2023/07/19 09:52:11;;;;;;;0.80;0.70;;;;;;;;;;5015407;28;21049;-80
2023/07/19 09:54:38;;;;;;;1.87;1.20;;;;;;;;;;5007980;28;20475;-79
2023/07/19 09:57:05;;;;;;;1.17;1.07;;;;;;;;;;5022012;28;20430;-77
2023/07/19 09:59:35;;;;;;;0.80;0.80;;;;;;;;;;5020375;28;20411;-80
2023/07/19 10:02:02;;;;;;;0.80;0.70;;;;;;;;;;5013405;28;20402;-79
2023/07/19 10:04:30;;;;;;;1.53;1.00;;;;;;;;;;5012586;28;20782;-79
2023/07/19 10:07:02;;;;;;;0.70;0.70;;;;;;;;;;5013621;28;20687;-79
2023/07/19 10:09:35;;;;;;;0.90;0.70;;;;;;;;;;5008246;28;20753;-80
2023/07/19 10:12:05;;;;;;;1.57;1.10;;;;;;;;;;5026528;28;20516;-80
2023/07/19 10:14:32;;;;;;;3.13;1.77;;;;;;;;;;5018811;28;20461;-79
2023/07/19 10:17:00;;;;;;;0.70;0.60;;;;;;;;;;4989791;28;21642;-78
2023/07/19 10:19:28;;;;;;;0.80;0.70;;;;;;;;;;5024920;28;20441;-79
2023/07/19 10:22:02;;;;;;;0.70;0.60;;;;;;;;;;5026507;28;21188;-79
2023/07/19 10:24:29;;;;;;;0.80;0.70;;;;;;;;;;5021449;28;20491;-80
2023/07/19 10:26:58;;;;;;;0.80;0.73;;;;;;;;;;5008197;28;20433;-79
2023/07/19 10:29:25;;;;;;;1.53;1.43;;;;;;;;;;5006808;28;20433;-78
2023/07/19 10:31:52;;;;;;;1.23;1.13;;;;;;;;;;5006964;28;20520;-79
2023/07/19 10:34:27;;;;;;;0.73;0.60;;;;;;;;;;5010809;28;20806;-77
2023/07/19 10:37:10;;;;;;;0.80;0.70;;;;;;;;;;5023767;28;20519;-80
2023/07/19 10:39:36;;;;;;;0.77;0.70;;;;;;;;;;5023676;28;20491;-79
2023/07/19 10:42:06;;;;;;;0.90;0.70;;;;;;;;;;4997161;28;20532;-79
2023/07/19 10:44:33;;;;;;;0.80;0.70;;;;;;;;;;5003604;28;20433;-78
2023/07/19 10:47:00;;;;;;;0.80;0.70;;;;;;;;;;5012335;28;20837;-80
2023/07/19 10:49:27;;;;;;;0.80;0.70;;;;;;;;;;5027270;28;20441;-77
2023/07/19 10:51:54;;;;;;;0.70;0.70;;;;;;;;;;4990402;28;20945;-79
2023/07/19 10:54:21;;;;;;;0.70;0.60;;;;;;;;;;5021374;28;20547;-78
2023/07/19 10:56:49;;;;;;;0.70;0.60;;;;;;;;;;5023794;28;20446;-80
2023/07/19 10:59:17;;;;;;;0.70;0.60;;;;;;;;;;5006411;28;20536;-79
2023/07/19 11:01:44;;;;;;;0.80;0.70;;;;;;;;;;5024680;28;20506;-75
2023/07/19 11:04:11;;;;;;;0.73;0.63;;;;;;;;;;5025399;28;20445;-79
2023/07/19 11:06:38;;;;;;;0.80;0.73;;;;;;;;;;5009868;28;20437;-80
2023/07/19 11:09:06;;;;;;;0.80;0.70;;;;;;;;;;5026296;28;20448;-79
2023/07/19 11:11:34;;;;;;;1.10;0.93;;;;;;;;;;5011636;28;20460;-80
2023/07/19 11:14:01;;;;;;;0.80;0.70;;;;;;;;;;5012275;28;20493;-81
2023/07/19 11:16:29;;;;;;;0.80;0.60;;;;;;;;;;5030900;28;20437;-80
2023/07/19 11:18:56;;;;;;;1.33;1.23;;;;;;;;;;5008239;28;21036;-77
2023/07/19 11:21:23;;;;;;;0.70;0.50;;;;;;;;;;5025747;28;20468;-79
2023/07/19 11:23:51;;;;;;;0.70;0.60;;;;;;;;;;5013715;28;20471;-77
2023/07/19 11:26:18;;;;;;;0.80;0.70;;;;;;;;;;5013141;28;20456;-79
2023/07/19 11:28:47;;;;;;;0.80;0.77;;;;;;;;;;5013389;28;20440;-80
2023/07/19 11:31:31;;;;;;;0.70;0.60;;;;;;;;;;5011377;28;20444;-78
2023/07/19 11:34:04;;;;;;;1.63;0.80;;;;;;;;;;5008717;28;20863;-76
2023/07/19 11:36:31;;;;;;;0.70;0.60;;;;;;;;;;5021803;28;20488;-79
2023/07/19 11:38:59;;;;;;;0.80;0.60;;;;;;;;;;5014195;28;20465;-79
2023/07/19 11:41:25;;;;;;;1.33;1.23;;;;;;;;;;5009037;28;20473;-77
2023/07/19 11:43:52;;;;;;;0.80;0.70;;;;;;;;;;5027315;28;20536;-80
2023/07/19 11:46:18;;;;;;;1.10;0.90;;;;;;;;;;5025360;28;20463;-80
2023/07/19 11:48:48;;;;;;;0.70;0.60;;;;;;;;;;5003203;28;20448;-79
2023/07/19 11:51:15;;;;;;;0.80;0.70;;;;;;;;;;5012840;28;20441;-78
2023/07/19 11:53:42;;;;;;;0.80;0.80;;;;;;;;;;5005737;28;20487;-79
2023/07/19 11:56:08;;;;;;;0.70;0.50;;;;;;;;;;5009931;28;20531;-79
2023/07/19 11:58:38;;;;;;;0.90;0.80;;;;;;;;;;5013509;28;20457;-76
2023/07/19 12:01:12;;;;;;;0.70;0.60;;;;;;;;;;5014593;28;20472;-78
2023/07/19 12:03:41;;;;;;;0.70;0.60;;;;;;;;;;5009239;28;20482;-78
2023/07/19 12:06:10;;;;;;;0.70;0.57;;;;;;;;;;5013449;28;20437;-75
2023/07/19 12:08:38;;;;;;;0.93;0.87;;;;;;;;;;5025506;28;20458;-78
2023/07/19 12:11:06;;;;;;;0.70;0.60;;;;;;;;;;5012573;28;20566;-74
2023/07/19 12:13:34;;;;;;;0.70;0.60;;;;;;;;;;5030436;28;20438;-76
2023/07/19 12:16:01;;;;;;;1.00;0.90;;;;;;;;;;5014524;28;20441;-77
2023/07/19 12:18:28;;;;;;;0.80;0.70;;;;;;;;;;5017613;28;20464;-75
2023/07/19 12:20:55;;;;;;;0.70;0.60;;;;;;;;;;5024141;28;20464;-76
2023/07/19 12:23:23;;;;;;;0.77;0.63;;;;;;;;;;5026071;28;20484;-79
2023/07/19 12:25:53;;;;;;;0.80;0.60;;;;;;;;;;5010974;28;20440;-78
2023/07/19 12:28:22;;;;;;;0.70;0.60;;;;;;;;;;5012623;28;20770;-79
2023/07/19 12:30:50;;;;;;;1.37;1.27;;;;;;;;;;5013533;28;20489;-76
2023/07/19 12:33:18;;;;;;;0.80;0.50;;;;;;;;;;5026859;28;20459;-75
2023/07/19 12:35:45;;;;;;;0.80;0.50;;;;;;;;;;5016414;28;20810;-75
2023/07/19 12:38:13;;;;;;;0.90;0.63;;;;;;;;;;5024701;28;20491;-78
2023/07/19 12:40:42;;;;;;;0.80;0.60;;;;;;;;;;5024392;28;20548;-74
2023/07/19 12:43:09;;;;;;;0.80;0.70;;;;;;;;;;4996321;28;20449;-76
2023/07/19 12:45:36;;;;;;;1.50;1.00;;;;;;;;;;5013694;28;20527;-74
2023/07/19 12:48:03;;;;;;;0.80;0.60;;;;;;;;;;5027616;28;20438;-78
2023/07/19 12:50:30;;;;;;;0.80;0.60;;;;;;;;;;5015007;28;20954;-75
2023/07/19 12:52:57;;;;;;;0.77;0.70;;;;;;;;;;5014353;28;20470;-75
2023/07/19 12:55:24;;;;;;;0.73;0.60;;;;;;;;;;5026469;28;20465;-74
2023/07/19 12:57:53;;;;;;;0.70;0.60;;;;;;;;;;5024343;28;20452;-76
2023/07/19 13:00:19;;;;;;;0.80;0.70;;;;;;;;;;5018337;28;20594;-75
2023/07/19 13:02:48;;;;;;;0.80;0.70;;;;;;;;;;5028993;28;20452;-77
2023/07/19 13:05:15;;;;;;;0.77;0.63;;;;;;;;;;4992228;28;20529;-78
2023/07/19 13:07:42;;;;;;;0.70;0.60;;;;;;;;;;5010666;28;20477;-76
2023/07/19 13:10:13;;;;;;;0.80;0.77;;;;;;;;;;5014300;28;20860;-79
2023/07/19 13:12:41;;;;;;;0.70;0.60;;;;;;;;;;5010331;28;20829;-76
2023/07/19 13:15:09;;;;;;;0.80;0.70;;;;;;;;;;5024801;28;20508;-77
2023/07/19 13:17:36;;;;;;;1.07;0.97;;;;;;;;;;5011409;28;20441;-77
2023/07/19 13:20:08;;;;;;;1.10;1.00;;;;;;;;;;5025142;28;21043;-74
2023/07/19 13:22:35;;;;;;;0.80;0.70;;;;;;;;;;5024626;28;20857;-74
2023/07/19 13:25:03;;;;;;;0.70;0.60;;;;;;;;;;5014157;28;20556;-74
2023/07/19 13:27:30;;;;;;;0.70;0.60;;;;;;;;;;5024245;28;20440;-75
2023/07/19 13:29:57;;;;;;;0.70;0.70;;;;;;;;;;5013148;28;20452;-77
2023/07/19 13:32:25;;;;;;;0.80;0.60;;;;;;;;;;5028187;28;20445;-78
2023/07/19 13:34:51;;;;;;;0.80;0.60;;;;;;;;;;5014631;28;20465;-76
2023/07/19 13:37:18;;;;;;;0.70;0.60;;;;;;;;;;5025485;28;20460;-78
2023/07/19 13:39:45;;;;;;;0.70;0.60;;;;;;;;;;5026350;28;20436;-75
2023/07/19 13:42:11;;;;;;;1.10;0.90;;;;;;;;;;5023563;28;20445;-75
2023/07/19 13:44:38;;;;;;;0.70;0.60;;;;;;;;;;5026811;28;20445;-75
2023/07/19 13:47:05;;;;;;;0.70;0.60;;;;;;;;;;5008795;28;20524;-77
2023/07/19 13:49:36;;;;;;;0.70;0.50;;;;;;;;;;4996730;28;20481;-75
2023/07/19 13:52:06;;;;;;;0.70;0.50;;;;;;;;;;5025778;28;20465;-73
2023/07/19 13:54:33;;;;;;;0.70;0.60;;;;;;;;;;5023135;28;20475;-74
2023/07/19 13:57:00;;;;;;;0.70;0.60;;;;;;;;;;5013202;28;20468;-76
2023/07/19 13:59:27;;;;;;;0.80;0.70;;;;;;;;;;5028525;28;20475;-76
2023/07/19 14:01:54;;;;;;;0.80;0.70;;;;;;;;;;5008485;28;20484;-75
2023/07/19 14:04:21;;;;;;;0.80;0.60;;;;;;;;;;5023016;28;20437;-74
2023/07/19 14:06:49;;;;;;;0.70;0.57;;;;;;;;;;5011494;28;20441;-75
2023/07/19 14:09:16;;;;;;;0.70;0.50;;;;;;;;;;5013871;28;20528;-74
2023/07/19 14:11:43;;;;;;;0.70;0.50;;;;;;;;;;5010389;28;20428;-75
2023/07/19 14:14:12;;;;;;;0.70;0.60;;;;;;;;;;5023941;28;20491;-76
2023/07/19 14:16:42;;;;;;;0.70;0.50;;;;;;;;;;5012288;28;20867;-74
2023/07/19 14:19:09;;;;;;;0.80;0.60;;;;;;;;;;5009260;28;20500;-74
2023/07/19 14:21:37;;;;;;;0.70;0.50;;;;;;;;;;5008541;28;20441;-76
2023/07/19 14:24:06;;;;;;;0.70;0.60;;;;;;;;;;5017037;28;20577;-74
2023/07/19 14:26:33;;;;;;;0.90;0.73;;;;;;;;;;5031017;28;20488;-75
2023/07/19 14:29:00;;;;;;;0.70;0.50;;;;;;;;;;5018061;28;20455;-75
2023/07/19 14:31:26;;;;;;;0.97;0.60;;;;;;;;;;5000386;28;20797;-79
2023/07/19 14:33:53;;;;;;;0.70;0.60;;;;;;;;;;5031903;28;20499;-75
2023/07/19 14:36:20;;;;;;;0.70;0.50;;;;;;;;;;5012121;28;20461;-71
2023/07/19 14:38:52;;;;;;;0.70;0.50;;;;;;;;;;5024632;28;20522;-73
2023/07/19 14:41:20;;;;;;;0.70;0.60;;;;;;;;;;5023128;28;20481;-75
2023/07/19 14:43:46;;;;;;;0.70;0.60;;;;;;;;;;5008848;28;20520;-74
2023/07/19 14:46:14;;;;;;;0.80;0.60;;;;;;;;;;5012391;28;20438;-75
2023/07/19 14:48:41;;;;;;;0.70;0.50;;;;;;;;;;5022103;28;20437;-76
2023/07/19 14:51:08;;;;;;;0.70;0.60;;;;;;;;;;5012086;28;20464;-75